MSC Opera — H3FV — position and weather

sailwx.info

Track history (hours):
 
Tides and Currents Weather Stations Pressure Air Temp Water Temp Dewpoint Dewpoint Depression Visibility Wind Speed Wind Dir Waves Ship Positions

MSC Opera

Operator: Mediterranean Shipping Company

Last reported at 2018-May-20 14:52 UTC. Time now 2018-May-22 11:45 UTC.
Position N 43°12' E 005°09'.

Length 275 m; draft 6.9 m.

Type: Ship. MMSI: 357627000.

Date/timePositionNaut miles runAvg speedWind from/ knotsBaromVisibWave heightAir tempDewpointWater temp
2018-May-20 14:52N 43°12' E 005°09'12 1.2
2018-May-20 05:04N 43°21' E 005°19'0 6.3
2018-May-20 05:00N 43°21' E 005°19'5 9.6
2018-May-20 04:29N 43°17' E 005°16'7714.9
2018-May-19 23:19N 43°09' E 007°00'517.2
2018-May-19 23:00N 43°11' E 007°07'917.2
2018-May-19 22:30N 43°15' E 007°17'917.7
2018-May-19 22:00N 43°19' E 007°28'3817.1
2018-May-19 19:45N 43°36' E 008°16'516.9
2018-May-19 19:28N 43°38' E 008°22'816.7
2018-May-19 19:00N 43°43' E 008°30'917.3
2018-May-19 18:30N 43°50' E 008°37'917.4
2018-May-19 18:00N 43°57' E 008°45'917.2
2018-May-19 17:30N 44°04' E 008°52'917.2
2018-May-19 17:01N 44°12' E 008°55'816.9
2018-May-19 16:30N 44°20' E 008°57'4 8.9
2018-May-19 16:00N 44°24' E 008°55'0 0.4
2018-May-19 15:28N 44°25' E 008°55'0 0.0
2018-May-19 14:36N 44°25' E 008°55'0 0.0
2018-May-19 14:30N 44°25' E 008°55'0 0.0
2018-May-19 14:00N 44°25' E 008°55'0 0.0
2018-May-19 13:30N 44°25' E 008°55'0 0.0
2018-May-19 13:00N 44°25' E 008°55'0 0.0
2018-May-19 12:30N 44°25' E 008°55'0 0.0
2018-May-19 11:59N 44°25' E 008°55'0 0.0
2018-May-19 11:29N 44°25' E 008°55'0 0.0
2018-May-19 10:59N 44°25' E 008°55'0 0.0
2018-May-19 10:23N 44°25' E 008°55'0 0.0
2018-May-19 09:58N 44°25' E 008°55'0 0.0
2018-May-19 09:28N 44°25' E 008°55'0 0.0
2018-May-19 08:58N 44°25' E 008°55'0 0.0
2018-May-19 08:28N 44°25' E 008°55'0 0.0
2018-May-19 07:48N 44°25' E 008°55'0 0.0
2018-May-19 07:30N 44°25' E 008°55'0 0.0
2018-May-19 07:00N 44°25' E 008°55'0 0.0
2018-May-19 06:30N 44°25' E 008°55'1 2.0
2018-May-19 06:00N 44°24' E 008°56'510.2
2018-May-19 05:31N 44°19' E 008°59'1019.3
2018-May-19 05:01N 44°10' E 009°04'1019.9
2018-May-19 04:31N 44°01' E 009°09'1019.8
2018-May-19 04:00N 43°52' E 009°14'1020.0
2018-May-19 03:31N 43°43' E 009°19'1020.2
2018-May-19 03:01N 43°33' E 009°24'1019.7
2018-May-19 02:31N 43°24' E 009°28'1019.3
2018-May-19 02:01N 43°15' E 009°33'1019.7
2018-May-19 01:31N 43°05' E 009°36'1019.7
2018-May-19 01:00N 42°56' E 009°40'1019.1
2018-May-19 00:30N 42°49' E 009°49'1018.9
2018-May-19 00:00N 42°44' E 009°60'1519.3
2018-May-18 23:13N 42°35' E 010°17'519.2
2018-May-18 22:56N 42°32' E 010°23'1519.4
2018-May-18 22:09N 42°22' E 010°39'319.4
2018-May-18 22:01N 42°20' E 010°41'16819.1
2018-May-18 13:13N 40°43' E 013°45'1118.4
2018-May-18 12:38N 40°39' E 013°58'318.9
2018-May-18 12:29N 40°39' E 014°01'817.6
2018-May-18 12:01N 40°43' E 014°11'816.0
2018-May-18 11:30N 40°50' E 014°17'1 2.0
2018-May-18 11:00N 40°51' E 014°16'0 0.0
2018-May-18 10:27N 40°51' E 014°16'0 0.0
2018-May-18 09:47N 40°51' E 014°16'0 0.0
2018-May-18 09:29N 40°51' E 014°16'0 0.0
2018-May-18 08:59N 40°51' E 014°16'0 0.0
2018-May-18 08:29N 40°51' E 014°16'0 0.0
2018-May-18 07:56N 40°51' E 014°16'0 0.0
2018-May-18 06:49N 40°51' E 014°16'0 0.0
2018-May-18 06:28N 40°51' E 014°16'0 0.0
2018-May-18 05:58N 40°51' E 014°16'0 0.0
2018-May-18 05:25N 40°51' E 014°16'0 0.0
2018-May-18 05:00N 40°51' E 014°16'0 0.0
2018-May-18 04:15N 40°51' E 014°16'0 0.2
2018-May-18 04:00N 40°50' E 014°16'2 3.3
2018-May-18 03:30N 40°49' E 014°17'612.9
2018-May-18 03:00N 40°43' E 014°14'713.5
2018-May-18 02:30N 40°37' E 014°11'1011.9
2018-May-18 01:42N 40°27' E 014°13'312.9
2018-May-18 01:29N 40°25' E 014°15'612.8
2018-May-18 00:59N 40°19' E 014°19'612.8
2018-May-18 00:30N 40°14' E 014°22'912.8
2018-May-17 23:48N 40°06' E 014°28'8917.0
2018-May-17 18:34N 38°47' E 015°22'217.7
2018-May-17 18:27N 38°45' E 015°24'917.5
2018-May-17 17:57N 38°38' E 015°29'717.1
2018-May-17 17:30N 38°31' E 015°33'917.1
2018-May-17 17:00N 38°23' E 015°39'815.2
2018-May-17 16:29N 38°16' E 015°41'715.0
2018-May-17 16:00N 38°12' E 015°34'0 0.4
2018-May-17 15:27N 38°12' E 015°33'0 0.0
2018-May-17 14:57N 38°12' E 015°33'0 0.0
2018-May-17 14:27N 38°12' E 015°33'0 0.0
2018-May-17 13:51N 38°12' E 015°33'0 0.0
2018-May-17 13:27N 38°12' E 015°33'0 0.0
2018-May-17 12:56N 38°12' E 015°33'0 0.0
2018-May-17 12:26N 38°12' E 015°33'0 0.0
2018-May-17 11:56N 38°12' E 015°33'0 0.0
2018-May-17 11:26N 38°12' E 015°33'0 0.0
2018-May-17 10:55N 38°12' E 015°33'0 0.0
2018-May-17 10:25N 38°12' E 015°33'0 0.0
2018-May-17 09:49N 38°12' E 015°33'0 0.0
2018-May-17 09:25N 38°12' E 015°33'0 0.0
2018-May-17 08:55N 38°12' E 015°33'0 0.0
2018-May-17 08:30N 38°12' E 015°33'0 0.0
2018-May-17 08:00N 38°12' E 015°33'0 0.0
2018-May-17 07:30N 38°12' E 015°33'0 0.0
2018-May-17 06:54N 38°12' E 015°33'0 0.0
2018-May-17 06:30N 38°12' E 015°33'0 0.0
2018-May-17 05:59N 38°12' E 015°33'1 1.6
2018-May-17 05:30N 38°12' E 015°34'4 8.2
2018-May-17 05:00N 38°09' E 015°36'612.1
2018-May-17 04:28N 38°02' E 015°35'1112.3
2018-May-17 03:32N 37°51' E 015°34'812.1
2018-May-17 02:51N 37°42' E 015°33'613.4
2018-May-17 02:27N 37°37' E 015°33'8613.0
2018-May-16 19:50N 36°16' E 014°57'613.2
2018-May-16 19:23N 36°12' E 014°52'813.2
2018-May-16 18:49N 36°07' E 014°45'413.3
2018-May-16 18:30N 36°04' E 014°42'913.3
2018-May-16 17:52N 35°57' E 014°35'411.3
2018-May-16 17:30N 35°54' E 014°32'4 0.5
2018-May-16 09:30N 35°58' E 014°32'4516.8
2018-May-16 06:48N 36°30' E 013°52'817.6
2018-May-16 06:22N 36°36' E 013°45'1617.4
2018-May-16 05:27N 36°47' E 013°31'25516.8
2018-May-15 14:20N 39°12' E 009°06'0 0.0
2018-May-15 13:58N 39°12' E 009°06'0 0.0
2018-May-15 13:28N 39°12' E 009°06'0 0.0
2018-May-15 12:58N 39°12' E 009°06'0 0.0
2018-May-15 12:28N 39°12' E 009°06'0 0.0
2018-May-15 11:58N 39°12' E 009°06'0 0.0
2018-May-15 11:27N 39°12' E 009°06'0 0.0
2018-May-15 11:00N 39°12' E 009°06'0 0.0
2018-May-15 10:30N 39°12' E 009°06'0 0.0
2018-May-15 10:00N 39°12' E 009°06'0 0.0
2018-May-15 09:30N 39°12' E 009°06'0 0.0
2018-May-15 08:59N 39°12' E 009°06'0 0.0
2018-May-15 08:29N 39°12' E 009°06'0 0.0
2018-May-15 07:59N 39°12' E 009°06'0 0.0
2018-May-15 07:30N 39°12' E 009°06'0 0.6
2018-May-15 07:00N 39°12' E 009°07'3 5.6
2018-May-15 06:30N 39°10' E 009°07'612.1
2018-May-15 06:00N 39°04' E 009°08'612.1
2018-May-15 05:30N 38°58' E 009°05'612.0
2018-May-15 04:59N 38°53' E 008°59'612.6
2018-May-15 04:30N 38°50' E 008°53'310 8.3
2018-May-13 15:03N 43°11' E 005°10'116.8
2018-May-13 15:00N 43°12' E 005°10'816.3
2018-May-13 14:30N 43°19' E 005°16'3 0.3
2018-May-13 05:13N 43°21' E 005°20'1 3.0
2018-May-13 04:59N 43°21' E 005°19'510.1
2018-May-13 04:29N 43°16' E 005°16'8114.7
2018-May-12 22:58N 43°10' E 007°07'817.3
2018-May-12 22:29N 43°13' E 007°17'916.7
2018-May-12 21:58N 43°17' E 007°28'4816.8
2018-May-12 19:08N 43°40' E 008°26'216.8
2018-May-12 19:00N 43°41' E 008°28'816.9
2018-May-12 18:31N 43°48' E 008°35'917.0
2018-May-12 18:01N 43°54' E 008°42'917.4
2018-May-12 17:30N 44°01' E 008°50'917.1
2018-May-12 17:00N 44°09' E 008°54'917.2
2018-May-12 16:31N 44°18' E 008°57'612.3
2018-May-12 16:00N 44°24' E 008°56'1 2.1
2018-May-12 15:30N 44°25' E 008°55'0 0.0
2018-May-12 15:00N 44°25' E 008°55'0 0.0
2018-May-12 14:26N 44°25' E 008°55'0 0.0
2018-May-12 13:56N 44°25' E 008°55'0 0.0
2018-May-12 13:29N 44°25' E 008°55'0 0.0
2018-May-12 12:59N 44°25' E 008°55'0 0.0
2018-May-12 12:29N 44°25' E 008°55'0 0.0
2018-May-12 11:55N 44°25' E 008°55'0 0.0
2018-May-12 11:25N 44°25' E 008°55'0 0.0
2018-May-12 10:55N 44°25' E 008°55'0 0.0
2018-May-12 10:28N 44°25' E 008°55'0 0.0
2018-May-12 09:58N 44°25' E 008°55'0 0.0
2018-May-12 09:30N 44°25' E 008°55'0 0.0
2018-May-12 08:51N 44°25' E 008°55'0 0.0
2018-May-12 08:30N 44°25' E 008°55'0 0.0
2018-May-12 08:00N 44°25' E 008°55'0 0.0
2018-May-12 07:26N 44°25' E 008°55'0 0.1
2018-May-12 07:00N 44°25' E 008°55'1 2.5
2018-May-12 06:30N 44°24' E 008°56'4 8.9
2018-May-12 06:01N 44°20' E 008°59'918.9
2018-May-12 05:30N 44°11' E 009°04'1019.8
2018-May-12 05:01N 44°02' E 009°09'1020.0
2018-May-12 04:31N 43°52' E 009°14'1019.7
2018-May-12 04:00N 43°43' E 009°18'1019.4
2018-May-12 03:30N 43°34' E 009°24'1019.1
2018-May-12 03:01N 43°25' E 009°28'1019.1
2018-May-12 02:31N 43°16' E 009°33'919.0
2018-May-12 02:01N 43°07' E 009°36'1318.7
2018-May-12 01:18N 42°55' E 009°42'619.0
2018-May-12 00:59N 42°50' E 009°48'1919.3
2018-May-11 23:59N 42°39' E 010°09'1119.5
2018-May-11 23:27N 42°33' E 010°21'1219.2
2018-May-11 22:50N 42°25' E 010°33'17618.7
2018-May-11 13:26N 40°43' E 013°44'1018.0
2018-May-11 12:53N 40°39' E 013°56'718.4
2018-May-11 12:30N 40°40' E 014°05'918.1
2018-May-11 12:00N 40°46' E 014°14'5 9.2
2018-May-11 11:30N 40°51' E 014°16'0 0.0
2018-May-11 10:57N 40°51' E 014°16'0 0.0
2018-May-11 09:50N 40°51' E 014°16'0 0.0
2018-May-11 09:17N 40°51' E 014°16'0 0.0
2018-May-11 08:56N 40°51' E 014°16'0 0.0
2018-May-11 08:26N 40°51' E 014°16'0 0.0
2018-May-11 07:55N 40°51' E 014°16'0 0.0
2018-May-11 07:19N 40°51' E 014°16'0 0.0
2018-May-11 06:58N 40°51' E 014°16'0 0.0
2018-May-11 06:28N 40°51' E 014°16'0 0.0
2018-May-11 05:55N 40°51' E 014°16'0 0.0
2018-May-11 05:24N 40°51' E 014°16'0 0.0
2018-May-11 05:00N 40°51' E 014°16'0 0.0
2018-May-11 04:30N 40°51' E 014°16'0 0.0
2018-May-11 04:00N 40°50' E 014°16'2 3.0
2018-May-11 03:27N 40°49' E 014°17'613.1
2018-May-11 03:00N 40°43' E 014°15'714.4
2018-May-11 02:30N 40°37' E 014°11'1113.7
2018-May-11 01:44N 40°26' E 014°13'314.9
2018-May-11 01:30N 40°23' E 014°16'814.8
2018-May-11 01:00N 40°17' E 014°20'10215.9
2018-May-10 18:34N 38°47' E 015°23'117.6
2018-May-10 18:29N 38°45' E 015°24'817.4
2018-May-10 18:00N 38°38' E 015°29'1116.5
2018-May-10 17:21N 38°28' E 015°35'616.5
2018-May-10 17:00N 38°23' E 015°38'815.0
2018-May-10 16:29N 38°16' E 015°41'612.7
2018-May-10 16:00N 38°12' E 015°34'1 1.8
2018-May-10 15:28N 38°12' E 015°33'0 0.0
2018-May-10 14:56N 38°12' E 015°33'  
Track history (hours):
 
Tides and Currents Weather Stations Pressure Air Temp Water Temp Dewpoint Dewpoint Depression Visibility Wind Speed Wind Dir Waves Ship Positions

MSC Opera

Operator: Mediterranean Shipping Company

Last reported at 2018-May-20 14:52 UTC. Time now 2018-May-22 11:45 UTC.
Position N 43°12' E 005°09'.

Length 275 m; draft 6.9 m.

Type: Ship. MMSI: 357627000.

Date/timePositionNaut miles runAvg speedWind from/ knotsBaromVisibWave heightAir tempDewpointWater temp
2018-May-20 14:52N 43°12' E 005°09'12 1.2
2018-May-20 05:04N 43°21' E 005°19'0 6.3
2018-May-20 05:00N 43°21' E 005°19'5 9.6
2018-May-20 04:29N 43°17' E 005°16'7714.9
2018-May-19 23:19N 43°09' E 007°00'517.2
2018-May-19 23:00N 43°11' E 007°07'917.2
2018-May-19 22:30N 43°15' E 007°17'917.7
2018-May-19 22:00N 43°19' E 007°28'3817.1
2018-May-19 19:45N 43°36' E 008°16'516.9
2018-May-19 19:28N 43°38' E 008°22'816.7
2018-May-19 19:00N 43°43' E 008°30'917.3
2018-May-19 18:30N 43°50' E 008°37'917.4
2018-May-19 18:00N 43°57' E 008°45'917.2
2018-May-19 17:30N 44°04' E 008°52'917.2
2018-May-19 17:01N 44°12' E 008°55'816.9
2018-May-19 16:30N 44°20' E 008°57'4 8.9
2018-May-19 16:00N 44°24' E 008°55'0 0.4
2018-May-19 15:28N 44°25' E 008°55'0 0.0
2018-May-19 14:36N 44°25' E 008°55'0 0.0
2018-May-19 14:30N 44°25' E 008°55'0 0.0
2018-May-19 14:00N 44°25' E 008°55'0 0.0
2018-May-19 13:30N 44°25' E 008°55'0 0.0
2018-May-19 13:00N 44°25' E 008°55'0 0.0
2018-May-19 12:30N 44°25' E 008°55'0 0.0
2018-May-19 11:59N 44°25' E 008°55'0 0.0
2018-May-19 11:29N 44°25' E 008°55'0 0.0
2018-May-19 10:59N 44°25' E 008°55'0 0.0
2018-May-19 10:23N 44°25' E 008°55'0 0.0
2018-May-19 09:58N 44°25' E 008°55'0 0.0
2018-May-19 09:28N 44°25' E 008°55'0 0.0
2018-May-19 08:58N 44°25' E 008°55'0 0.0
2018-May-19 08:28N 44°25' E 008°55'0 0.0
2018-May-19 07:48N 44°25' E 008°55'0 0.0
2018-May-19 07:30N 44°25' E 008°55'0 0.0
2018-May-19 07:00N 44°25' E 008°55'0 0.0
2018-May-19 06:30N 44°25' E 008°55'1 2.0
2018-May-19 06:00N 44°24' E 008°56'510.2
2018-May-19 05:31N 44°19' E 008°59'1019.3
2018-May-19 05:01N 44°10' E 009°04'1019.9
2018-May-19 04:31N 44°01' E 009°09'1019.8
2018-May-19 04:00N 43°52' E 009°14'1020.0
2018-May-19 03:31N 43°43' E 009°19'1020.2
2018-May-19 03:01N 43°33' E 009°24'1019.7
2018-May-19 02:31N 43°24' E 009°28'1019.3
2018-May-19 02:01N 43°15' E 009°33'1019.7
2018-May-19 01:31N 43°05' E 009°36'1019.7
2018-May-19 01:00N 42°56' E 009°40'1019.1
2018-May-19 00:30N 42°49' E 009°49'1018.9
2018-May-19 00:00N 42°44' E 009°60'1519.3
2018-May-18 23:13N 42°35' E 010°17'519.2
2018-May-18 22:56N 42°32' E 010°23'1519.4
2018-May-18 22:09N 42°22' E 010°39'319.4
2018-May-18 22:01N 42°20' E 010°41'16819.1
2018-May-18 13:13N 40°43' E 013°45'1118.4
2018-May-18 12:38N 40°39' E 013°58'318.9
2018-May-18 12:29N 40°39' E 014°01'817.6
2018-May-18 12:01N 40°43' E 014°11'816.0
2018-May-18 11:30N 40°50' E 014°17'1 2.0
2018-May-18 11:00N 40°51' E 014°16'0 0.0
2018-May-18 10:27N 40°51' E 014°16'0 0.0
2018-May-18 09:47N 40°51' E 014°16'0 0.0
2018-May-18 09:29N 40°51' E 014°16'0 0.0
2018-May-18 08:59N 40°51' E 014°16'0 0.0
2018-May-18 08:29N 40°51' E 014°16'0 0.0
2018-May-18 07:56N 40°51' E 014°16'0 0.0
2018-May-18 06:49N 40°51' E 014°16'0 0.0
2018-May-18 06:28N 40°51' E 014°16'0 0.0
2018-May-18 05:58N 40°51' E 014°16'0 0.0
2018-May-18 05:25N 40°51' E 014°16'0 0.0
2018-May-18 05:00N 40°51' E 014°16'0 0.0
2018-May-18 04:15N 40°51' E 014°16'0 0.2
2018-May-18 04:00N 40°50' E 014°16'2 3.3
2018-May-18 03:30N 40°49' E 014°17'612.9
2018-May-18 03:00N 40°43' E 014°14'713.5
2018-May-18 02:30N 40°37' E 014°11'1011.9
2018-May-18 01:42N 40°27' E 014°13'312.9
2018-May-18 01:29N 40°25' E 014°15'612.8
2018-May-18 00:59N 40°19' E 014°19'612.8
2018-May-18 00:30N 40°14' E 014°22'912.8
2018-May-17 23:48N 40°06' E 014°28'8917.0
2018-May-17 18:34N 38°47' E 015°22'217.7
2018-May-17 18:27N 38°45' E 015°24'917.5
2018-May-17 17:57N 38°38' E 015°29'717.1
2018-May-17 17:30N 38°31' E 015°33'917.1
2018-May-17 17:00N 38°23' E 015°39'815.2
2018-May-17 16:29N 38°16' E 015°41'715.0
2018-May-17 16:00N 38°12' E 015°34'0 0.4
2018-May-17 15:27N 38°12' E 015°33'0 0.0
2018-May-17 14:57N 38°12' E 015°33'0 0.0
2018-May-17 14:27N 38°12' E 015°33'0 0.0
2018-May-17 13:51N 38°12' E 015°33'0 0.0
2018-May-17 13:27N 38°12' E 015°33'0 0.0
2018-May-17 12:56N 38°12' E 015°33'0 0.0
2018-May-17 12:26N 38°12' E 015°33'0 0.0
2018-May-17 11:56N 38°12' E 015°33'0 0.0
2018-May-17 11:26N 38°12' E 015°33'0 0.0
2018-May-17 10:55N 38°12' E 015°33'0 0.0
2018-May-17 10:25N 38°12' E 015°33'0 0.0
2018-May-17 09:49N 38°12' E 015°33'0 0.0
2018-May-17 09:25N 38°12' E 015°33'0 0.0
2018-May-17 08:55N 38°12' E 015°33'0 0.0
2018-May-17 08:30N 38°12' E 015°33'0 0.0
2018-May-17 08:00N 38°12' E 015°33'0 0.0
2018-May-17 07:30N 38°12' E 015°33'0 0.0
2018-May-17 06:54N 38°12' E 015°33'0 0.0
2018-May-17 06:30N 38°12' E 015°33'0 0.0
2018-May-17 05:59N 38°12' E 015°33'1 1.6
2018-May-17 05:30N 38°12' E 015°34'4 8.2
2018-May-17 05:00N 38°09' E 015°36'612.1
2018-May-17 04:28N 38°02' E 015°35'1112.3
2018-May-17 03:32N 37°51' E 015°34'812.1
2018-May-17 02:51N 37°42' E 015°33'613.4
2018-May-17 02:27N 37°37' E 015°33'8613.0
2018-May-16 19:50N 36°16' E 014°57'613.2
2018-May-16 19:23N 36°12' E 014°52'813.2
2018-May-16 18:49N 36°07' E 014°45'413.3
2018-May-16 18:30N 36°04' E 014°42'913.3
2018-May-16 17:52N 35°57' E 014°35'411.3
2018-May-16 17:30N 35°54' E 014°32'4 0.5
2018-May-16 09:30N 35°58' E 014°32'4516.8
2018-May-16 06:48N 36°30' E 013°52'817.6
2018-May-16 06:22N 36°36' E 013°45'1617.4
2018-May-16 05:27N 36°47' E 013°31'25516.8
2018-May-15 14:20N 39°12' E 009°06'0 0.0
2018-May-15 13:58N 39°12' E 009°06'0 0.0
2018-May-15 13:28N 39°12' E 009°06'0 0.0
2018-May-15 12:58N 39°12' E 009°06'0 0.0
2018-May-15 12:28N 39°12' E 009°06'0 0.0
2018-May-15 11:58N 39°12' E 009°06'0 0.0
2018-May-15 11:27N 39°12' E 009°06'0 0.0
2018-May-15 11:00N 39°12' E 009°06'0 0.0
2018-May-15 10:30N 39°12' E 009°06'0 0.0
2018-May-15 10:00N 39°12' E 009°06'0 0.0
2018-May-15 09:30N 39°12' E 009°06'0 0.0
2018-May-15 08:59N 39°12' E 009°06'0 0.0
2018-May-15 08:29N 39°12' E 009°06'0 0.0
2018-May-15 07:59N 39°12' E 009°06'0 0.0
2018-May-15 07:30N 39°12' E 009°06'0 0.6
2018-May-15 07:00N 39°12' E 009°07'3 5.6
2018-May-15 06:30N 39°10' E 009°07'612.1
2018-May-15 06:00N 39°04' E 009°08'612.1
2018-May-15 05:30N 38°58' E 009°05'612.0
2018-May-15 04:59N 38°53' E 008°59'612.6
2018-May-15 04:30N 38°50' E 008°53'310 8.3
2018-May-13 15:03N 43°11' E 005°10'116.8
2018-May-13 15:00N 43°12' E 005°10'816.3
2018-May-13 14:30N 43°19' E 005°16'3 0.3
2018-May-13 05:13N 43°21' E 005°20'1 3.0
2018-May-13 04:59N 43°21' E 005°19'510.1
2018-May-13 04:29N 43°16' E 005°16'8114.7
2018-May-12 22:58N 43°10' E 007°07'817.3
2018-May-12 22:29N 43°13' E 007°17'916.7
2018-May-12 21:58N 43°17' E 007°28'4816.8
2018-May-12 19:08N 43°40' E 008°26'216.8
2018-May-12 19:00N 43°41' E 008°28'816.9
2018-May-12 18:31N 43°48' E 008°35'917.0
2018-May-12 18:01N 43°54' E 008°42'917.4
2018-May-12 17:30N 44°01' E 008°50'917.1
2018-May-12 17:00N 44°09' E 008°54'917.2
2018-May-12 16:31N 44°18' E 008°57'612.3
2018-May-12 16:00N 44°24' E 008°56'1 2.1
2018-May-12 15:30N 44°25' E 008°55'0 0.0
2018-May-12 15:00N 44°25' E 008°55'0 0.0
2018-May-12 14:26N 44°25' E 008°55'0 0.0
2018-May-12 13:56N 44°25' E 008°55'0 0.0
2018-May-12 13:29N 44°25' E 008°55'0 0.0
2018-May-12 12:59N 44°25' E 008°55'0 0.0
2018-May-12 12:29N 44°25' E 008°55'0 0.0
2018-May-12 11:55N 44°25' E 008°55'0 0.0
2018-May-12 11:25N 44°25' E 008°55'0 0.0
2018-May-12 10:55N 44°25' E 008°55'0 0.0
2018-May-12 10:28N 44°25' E 008°55'0 0.0
2018-May-12 09:58N 44°25' E 008°55'0 0.0
2018-May-12 09:30N 44°25' E 008°55'0 0.0
2018-May-12 08:51N 44°25' E 008°55'0 0.0
2018-May-12 08:30N 44°25' E 008°55'0 0.0
2018-May-12 08:00N 44°25' E 008°55'0 0.0
2018-May-12 07:26N 44°25' E 008°55'0 0.1
2018-May-12 07:00N 44°25' E 008°55'1 2.5
2018-May-12 06:30N 44°24' E 008°56'4 8.9
2018-May-12 06:01N 44°20' E 008°59'918.9
2018-May-12 05:30N 44°11' E 009°04'1019.8
2018-May-12 05:01N 44°02' E 009°09'1020.0
2018-May-12 04:31N 43°52' E 009°14'1019.7
2018-May-12 04:00N 43°43' E 009°18'1019.4
2018-May-12 03:30N 43°34' E 009°24'1019.1
2018-May-12 03:01N 43°25' E 009°28'1019.1
2018-May-12 02:31N 43°16' E 009°33'919.0
2018-May-12 02:01N 43°07' E 009°36'1318.7
2018-May-12 01:18N 42°55' E 009°42'619.0
2018-May-12 00:59N 42°50' E 009°48'1919.3
2018-May-11 23:59N 42°39' E 010°09'1119.5
2018-May-11 23:27N 42°33' E 010°21'1219.2
2018-May-11 22:50N 42°25' E 010°33'17618.7
2018-May-11 13:26N 40°43' E 013°44'1018.0
2018-May-11 12:53N 40°39' E 013°56'718.4
2018-May-11 12:30N 40°40' E 014°05'918.1
2018-May-11 12:00N 40°46' E 014°14'5 9.2
2018-May-11 11:30N 40°51' E 014°16'0 0.0
2018-May-11 10:57N 40°51' E 014°16'0 0.0
2018-May-11 09:50N 40°51' E 014°16'0 0.0
2018-May-11 09:17N 40°51' E 014°16'0 0.0
2018-May-11 08:56N 40°51' E 014°16'0 0.0
2018-May-11 08:26N 40°51' E 014°16'0 0.0
2018-May-11 07:55N 40°51' E 014°16'0 0.0
2018-May-11 07:19N 40°51' E 014°16'0 0.0
2018-May-11 06:58N 40°51' E 014°16'0 0.0
2018-May-11 06:28N 40°51' E 014°16'0 0.0
2018-May-11 05:55N 40°51' E 014°16'0 0.0
2018-May-11 05:24N 40°51' E 014°16'0 0.0
2018-May-11 05:00N 40°51' E 014°16'0 0.0
2018-May-11 04:30N 40°51' E 014°16'0 0.0
2018-May-11 04:00N 40°50' E 014°16'2 3.0
2018-May-11 03:27N 40°49' E 014°17'613.1
2018-May-11 03:00N 40°43' E 014°15'714.4
2018-May-11 02:30N 40°37' E 014°11'1113.7
2018-May-11 01:44N 40°26' E 014°13'314.9
2018-May-11 01:30N 40°23' E 014°16'814.8
2018-May-11 01:00N 40°17' E 014°20'10215.9
2018-May-10 18:34N 38°47' E 015°23'117.6
2018-May-10 18:29N 38°45' E 015°24'817.4
2018-May-10 18:00N 38°38' E 015°29'1116.5
2018-May-10 17:21N 38°28' E 015°35'616.5
2018-May-10 17:00N 38°23' E 015°38'815.0
2018-May-10 16:29N 38°16' E 015°41'612.7
2018-May-10 16:00N 38°12' E 015°34'1 1.8
2018-May-10 15:28N 38°12' E 015°33'0 0.0
2018-May-10 14:56N 38°12' E 015°33'  

Dump ship's entire track history